Time;durP1;ratioP1;P1;durP2;ratioP2;P2;SDS_P1;SDS_P2;PMS_P1;PMS_P2;Temp;Humidity;BMP_temperature;BMP_pressure;BME280_temperature;BME280_humidity;BME280_pressure;Samples;Min_cycle;Max_cycle;Signal;HPM_P1;HPM_P2
2022/01/04 00:01:01;;;;;;;0.20;0.00;;;;;25.20;99855.00;;;;5078274;28;20114;-75
2022/01/04 00:03:31;;;;;;;0.00;0.00;;;;;25.20;99857.00;;;;5080098;28;20044;-76
2022/01/04 00:06:00;;;;;;;0.00;0.00;;;;;25.10;99856.00;;;;5068026;28;20044;-75
2022/01/04 00:08:30;;;;;;;0.00;0.00;;;;;25.10;99865.00;;;;5068777;28;20499;-73
2022/01/04 00:11:08;;;;;;;0.10;0.10;;;;;25.00;99855.00;;;;5068989;28;20109;-74
2022/01/04 00:13:38;;;;;;;0.10;0.10;;;;;25.00;99856.00;;;;5070073;28;20051;-73
2022/01/04 00:16:10;;;;;;;0.08;0.08;;;;;24.90;99856.00;;;;5069071;28;20046;-73
2022/01/04 00:18:41;;;;;;;0.00;0.00;;;;;24.90;99845.00;;;;5069622;28;20041;-73
2022/01/04 00:21:10;;;;;;;0.00;0.00;;;;;24.90;99848.00;;;;5068181;28;21207;-74
2022/01/04 00:23:40;;;;;;;0.00;0.00;;;;;24.90;99844.00;;;;5068659;28;20114;-73
2022/01/04 00:26:09;;;;;;;0.00;0.00;;;;;25.00;99858.00;;;;5069543;28;20471;-74
2022/01/04 00:28:38;;;;;;;0.00;0.00;;;;;25.00;99865.00;;;;5068540;28;20159;-75
2022/01/04 00:31:08;;;;;;;620.22;90.22;;;;;25.10;99859.00;;;;5069420;28;20045;-75
2022/01/04 00:33:37;;;;;;;361.83;73.40;;;;;25.00;99864.00;;;;5069134;28;20442;-74
2022/01/04 00:36:07;;;;;;;1749.10;191.52;;;;;24.90;99851.00;;;;5068800;28;20044;-75
2022/01/04 00:38:36;;;;;;;45.17;41.20;;;;;24.90;99855.00;;;;5069211;28;20051;-74
2022/01/04 00:41:06;;;;;;;1355.03;226.65;;;;;24.90;99856.00;;;;5068279;28;20037;-74
2022/01/04 00:43:35;;;;;;;0.00;0.00;;;;;24.90;99862.00;;;;5068442;28;20036;-73
2022/01/04 00:46:05;;;;;;;0.00;0.00;;;;;24.90;99867.00;;;;5067305;28;20040;-76
2022/01/04 00:51:03;;;;;;;0.00;0.00;;;;;24.90;99879.00;;;;5068365;28;20511;-76
2022/01/04 00:53:33;;;;;;;0.00;0.00;;;;;25.00;99875.00;;;;5067154;28;20052;-76
2022/01/04 00:56:02;;;;;;;0.00;0.00;;;;;25.10;99888.00;;;;5069890;28;20518;-77
2022/01/04 00:58:32;;;;;;;0.00;0.00;;;;;25.10;99885.00;;;;5068557;28;20071;-76
2022/01/04 01:01:02;;;;;;;0.00;0.00;;;;;25.10;99882.00;;;;5071291;28;20465;-76
2022/01/04 01:03:32;;;;;;;;;;;;;25.20;99886.00;;;;5068653;28;20517;-77
2022/01/04 01:06:01;;;;;;;0.00;0.00;;;;;25.40;99882.00;;;;5067703;28;19924;-76
2022/01/04 01:08:31;;;;;;;0.00;0.00;;;;;25.60;99893.00;;;;5067079;28;20135;-77
2022/01/04 01:11:04;;;;;;;0.00;0.00;;;;;25.60;99892.00;;;;5082863;28;20827;-78
2022/01/04 01:13:34;;;;;;;0.00;0.00;;;;;25.50;99887.00;;;;5051115;28;20464;-78
2022/01/04 01:16:04;;;;;;;6.30;1.38;;;;;25.40;99887.00;;;;5068059;28;20051;-77
2022/01/04 01:18:35;;;;;;;0.00;0.00;;;;;25.40;99883.00;;;;5068034;28;20040;-75
2022/01/04 01:21:07;;;;;;;0.00;0.00;;;;;25.30;99895.00;;;;5068613;28;20055;-77
2022/01/04 01:23:37;;;;;;;0.00;0.00;;;;;25.30;99897.00;;;;5068224;28;20123;-77
2022/01/04 01:26:09;;;;;;;0.00;0.00;;;;;25.20;99894.00;;;;5067992;28;20135;-75
2022/01/04 01:28:39;;;;;;;0.00;0.00;;;;;25.10;99893.00;;;;5068334;28;20123;-75
2022/01/04 01:31:10;;;;;;;0.00;0.00;;;;;25.10;99882.00;;;;5067718;28;20044;-76
2022/01/04 01:33:39;;;;;;;0.00;0.00;;;;;25.10;99891.00;;;;5068527;28;20455;-78
2022/01/04 01:36:09;;;;;;;0.00;0.00;;;;;25.00;99882.00;;;;5068362;28;20039;-77
2022/01/04 01:38:38;;;;;;;0.00;0.00;;;;;25.00;99880.00;;;;5067703;28;20044;-78
2022/01/04 01:41:08;;;;;;;0.00;0.00;;;;;24.90;99885.00;;;;5067624;28;20043;-76
2022/01/04 01:43:37;;;;;;;0.00;0.00;;;;;24.90;99881.00;;;;5067213;28;20045;-77
2022/01/04 01:46:06;;;;;;;0.03;0.03;;;;;24.80;99874.00;;;;5067591;28;20068;-77
2022/01/04 01:48:36;;;;;;;0.00;0.00;;;;;24.80;99864.00;;;;5068619;28;20076;-78
2022/01/04 01:51:06;;;;;;;0.00;0.00;;;;;24.80;99865.00;;;;5083219;28;20132;-77
2022/01/04 01:53:36;;;;;;;0.00;0.00;;;;;24.70;99871.00;;;;5067876;28;20051;-75
2022/01/04 01:56:05;;;;;;;0.00;0.00;;;;;24.60;99847.00;;;;5066881;28;20056;-75
2022/01/04 01:58:35;;;;;;;0.00;0.00;;;;;24.60;99852.00;;;;5081850;28;20747;-78
2022/01/04 02:01:04;;;;;;;0.00;0.00;;;;;24.50;99866.00;;;;5067603;28;20071;-76
2022/01/04 02:03:34;;;;;;;0.00;0.00;;;;;24.50;99855.00;;;;5067088;28;20526;-77
2022/01/04 02:06:03;;;;;;;0.00;0.00;;;;;24.50;99852.00;;;;5067367;28;20052;-76
2022/01/04 02:08:33;;;;;;;0.10;0.10;;;;;24.50;99846.00;;;;5067912;28;20040;-76
2022/01/04 02:11:03;;;;;;;0.00;0.00;;;;;24.40;99835.00;;;;5068047;28;20040;-77
2022/01/04 02:13:33;;;;;;;0.00;0.00;;;;;24.40;99839.00;;;;5067520;28;20048;-78
2022/01/04 02:16:03;;;;;;;0.03;0.03;;;;;24.30;99833.00;;;;5066898;28;20048;-76
2022/01/04 02:18:32;;;;;;;0.00;0.00;;;;;24.30;99843.00;;;;5066735;28;20131;-77
2022/01/04 02:21:02;;;;;;;0.00;0.00;;;;;24.30;99841.00;;;;5066859;28;20044;-75
2022/01/04 02:23:33;;;;;;;0.00;0.00;;;;;24.30;99836.00;;;;5067393;28;20044;-77
2022/01/04 02:26:03;;;;;;;0.00;0.00;;;;;24.20;99846.00;;;;5066832;28;20110;-78
2022/01/04 02:28:33;;;;;;;0.00;0.00;;;;;24.20;99850.00;;;;5066598;28;20041;-75
2022/01/04 02:31:02;;;;;;;0.00;0.00;;;;;24.20;99855.00;;;;5066435;28;20055;-75
2022/01/04 02:33:32;;;;;;;0.00;0.00;;;;;24.30;99859.00;;;;5066196;28;20048;-76
2022/01/04 02:36:01;;;;;;;0.00;0.00;;;;;24.40;99847.00;;;;5067224;28;20843;-76
2022/01/04 02:38:31;;;;;;;0.20;0.20;;;;;24.30;99831.00;;;;5066597;28;20033;-76
2022/01/04 02:41:01;;;;;;;0.20;0.10;;;;;24.30;99845.00;;;;5066221;28;20399;-75
2022/01/04 02:43:31;;;;;;;0.00;0.00;;;;;24.20;99850.00;;;;5066669;28;20044;-75
2022/01/04 02:46:00;;;;;;;0.10;0.10;;;;;24.10;99833.00;;;;5066583;28;20119;-75
2022/01/04 02:48:30;;;;;;;0.00;0.00;;;;;24.00;99826.00;;;;5066292;28;20063;-74
2022/01/04 02:51:00;;;;;;;0.00;0.00;;;;;24.00;99819.00;;;;5067282;28;20499;-75
2022/01/04 02:53:29;;;;;;;0.00;0.00;;;;;24.10;99806.00;;;;5066789;28;20098;-76
2022/01/04 02:55:59;;;;;;;0.10;0.10;;;;;24.10;99810.00;;;;5065572;28;21055;-76
2022/01/04 02:58:28;;;;;;;0.00;0.00;;;;;24.10;99818.00;;;;5066575;28;20094;-75
2022/01/04 03:00:58;;;;;;;0.00;0.00;;;;;24.10;99810.00;;;;5065932;28;20470;-75
2022/01/04 03:03:27;;;;;;;0.00;0.00;;;;;24.20;99806.00;;;;5065996;28;20503;-75
2022/01/04 03:05:57;;;;;;;3.85;0.20;;;;;24.30;99789.00;;;;5081586;28;20059;-75
2022/01/04 03:08:27;;;;;;;3.63;0.43;;;;;24.30;99798.00;;;;5065559;28;20041;-75
2022/01/04 03:10:56;;;;;;;0.00;0.00;;;;;24.20;99794.00;;;;5081399;28;20119;-74
2022/01/04 03:13:26;;;;;;;0.00;0.00;;;;;24.20;99788.00;;;;5066275;28;20514;-75
2022/01/04 03:15:56;;;;;;;0.03;0.03;;;;;24.30;99785.00;;;;5066002;28;20033;-75
2022/01/04 03:18:25;;;;;;;0.00;0.00;;;;;24.20;99789.00;;;;5066217;28;20090;-75
2022/01/04 03:20:54;;;;;;;0.00;0.00;;;;;24.10;99789.00;;;;5066421;28;20085;-75
2022/01/04 03:23:24;;;;;;;0.20;0.20;;;;;24.20;99784.00;;;;5081152;28;20044;-75
2022/01/04 03:25:53;;;;;;;0.50;0.50;;;;;24.20;99775.00;;;;5066299;28;20049;-75
2022/01/04 03:28:23;;;;;;;0.70;0.70;;;;;24.20;99781.00;;;;5064778;28;20052;-75
2022/01/04 03:30:53;;;;;;;0.00;0.00;;;;;24.10;99785.00;;;;5066224;28;20040;-75
2022/01/04 03:33:22;;;;;;;0.00;0.00;;;;;24.10;99774.00;;;;5081107;28;20051;-75
2022/01/04 03:35:51;;;;;;;0.00;0.00;;;;;24.10;99769.00;;;;5066373;28;20049;-75
2022/01/04 03:38:21;;;;;;;0.10;0.10;;;;;24.10;99774.00;;;;5065994;28;20036;-75
2022/01/04 03:40:50;;;;;;;0.00;0.00;;;;;24.20;99764.00;;;;5065513;28;20449;-76
2022/01/04 03:43:21;;;;;;;0.15;0.13;;;;;24.20;99748.00;;;;5081360;28;20170;-74
2022/01/04 03:45:50;;;;;;;0.50;0.50;;;;;24.20;99736.00;;;;5066026;28;20794;-75
2022/01/04 03:48:20;;;;;;;0.00;0.00;;;;;24.10;99752.00;;;;5080427;28;20102;-75
2022/01/04 03:50:49;;;;;;;0.15;0.13;;;;;24.10;99730.00;;;;5065388;28;20040;-74
2022/01/04 03:53:19;;;;;;;0.15;0.15;;;;;24.00;99722.00;;;;5064122;28;20075;-76
2022/01/04 03:55:49;;;;;;;0.08;0.08;;;;;24.00;99733.00;;;;5065201;28;20052;-75
2022/01/04 03:58:18;;;;;;;0.00;0.00;;;;;23.90;99751.00;;;;5065475;28;20033;-74
2022/01/04 04:00:48;;;;;;;0.05;0.05;;;;;23.90;99742.00;;;;5080713;28;20041;-75
2022/01/04 04:03:18;;;;;;;0.00;0.00;;;;;23.90;99741.00;;;;5065813;28;20040;-75
2022/01/04 04:05:49;;;;;;;0.00;0.00;;;;;23.90;99737.00;;;;5066027;28;20541;-75
2022/01/04 04:08:18;;;;;;;0.00;0.00;;;;;23.90;99752.00;;;;5065513;28;20044;-75
2022/01/04 04:10:48;;;;;;;0.00;0.00;;;;;23.90;99731.00;;;;5064997;28;20063;-75
2022/01/04 04:13:17;;;;;;;0.00;0.00;;;;;23.90;99730.00;;;;5063350;28;20090;-75
2022/01/04 04:15:46;;;;;;;0.00;0.00;;;;;23.90;99729.00;;;;5065240;28;20106;-75
2022/01/04 04:18:17;;;;;;;0.00;0.00;;;;;23.90;99743.00;;;;5065241;28;20040;-75
2022/01/04 04:20:47;;;;;;;0.00;0.00;;;;;23.80;99723.00;;;;5067042;28;20098;-76
2022/01/04 04:23:16;;;;;;;0.00;0.00;;;;;23.80;99733.00;;;;5069361;28;20101;-75
2022/01/04 04:25:46;;;;;;;0.00;0.00;;;;;23.80;99714.00;;;;5068778;28;20048;-75
2022/01/04 04:28:15;;;;;;;0.00;0.00;;;;;23.80;99721.00;;;;5069200;28;20045;-75
2022/01/04 04:30:45;;;;;;;0.08;0.08;;;;;23.80;99712.00;;;;5068561;28;20040;-76
2022/01/04 04:33:15;;;;;;;0.00;0.00;;;;;23.80;99724.00;;;;5068734;28;20040;-75
2022/01/04 04:35:44;;;;;;;0.00;0.00;;;;;23.80;99720.00;;;;5068849;28;20044;-75
2022/01/04 04:38:14;;;;;;;0.00;0.00;;;;;23.80;99711.00;;;;5068716;28;20458;-74
2022/01/04 04:40:43;;;;;;;0.00;0.00;;;;;23.70;99707.00;;;;5068520;28;20056;-75
2022/01/04 04:43:13;;;;;;;0.00;0.00;;;;;23.70;99712.00;;;;5069490;28;20123;-75
2022/01/04 04:45:42;;;;;;;0.00;0.00;;;;;23.70;99694.00;;;;5068952;28;20048;-75
2022/01/04 04:48:12;;;;;;;0.00;0.00;;;;;23.80;99706.00;;;;5068668;28;20642;-75
2022/01/04 04:50:41;;;;;;;0.00;0.00;;;;;23.80;99702.00;;;;5068406;28;20037;-74
2022/01/04 04:53:11;;;;;;;0.00;0.00;;;;;23.80;99712.00;;;;5067821;28;20102;-75
2022/01/04 04:55:40;;;;;;;0.00;0.00;;;;;23.80;99709.00;;;;5068281;28;20040;-75
2022/01/04 04:58:10;;;;;;;0.00;0.00;;;;;23.80;99687.00;;;;5068218;28;20043;-75
2022/01/04 05:00:39;;;;;;;0.00;0.00;;;;;23.80;99689.00;;;;5069348;28;20093;-75
2022/01/04 05:03:09;;;;;;;0.00;0.00;;;;;23.90;99699.00;;;;5068644;28;20150;-75
2022/01/04 05:05:39;;;;;;;0.00;0.00;;;;;23.90;99695.00;;;;5065982;28;20439;-75
2022/01/04 05:08:08;;;;;;;0.00;0.00;;;;;23.90;99690.00;;;;5066989;28;20053;-75
2022/01/04 05:10:37;;;;;;;0.00;0.00;;;;;24.00;99703.00;;;;5068029;28;20052;-75
2022/01/04 05:13:07;;;;;;;0.00;0.00;;;;;24.00;99685.00;;;;5083923;28;20044;-76
2022/01/04 05:15:36;;;;;;;0.00;0.00;;;;;24.00;99690.00;;;;5067900;28;20098;-75
2022/01/04 05:18:09;;;;;;;0.00;0.00;;;;;23.90;99698.00;;;;5067607;28;20037;-75
2022/01/04 05:20:39;;;;;;;0.00;0.00;;;;;23.90;99697.00;;;;5067974;28;20044;-75
2022/01/04 05:23:08;;;;;;;0.00;0.00;;;;;24.00;99705.00;;;;5083112;28;20044;-75
2022/01/04 05:25:38;;;;;;;0.00;0.00;;;;;24.10;99718.00;;;;5067423;28;20036;-75
2022/01/04 05:28:08;;;;;;;0.00;0.00;;;;;24.00;99705.00;;;;5067992;28;20040;-74
2022/01/04 05:30:38;;;;;;;0.00;0.00;;;;;23.90;99704.00;;;;5068068;28;20047;-77
2022/01/04 05:33:08;;;;;;;0.00;0.00;;;;;23.80;99689.00;;;;5068361;28;20519;-75
2022/01/04 05:35:38;;;;;;;0.00;0.00;;;;;23.80;99694.00;;;;5068797;28;20054;-74
2022/01/04 05:38:10;;;;;;;0.00;0.00;;;;;23.70;99684.00;;;;5069598;28;20040;-74
2022/01/04 05:40:40;;;;;;;0.00;0.00;;;;;23.70;99690.00;;;;5067315;28;20056;-74
2022/01/04 05:43:10;;;;;;;0.00;0.00;;;;;23.60;99692.00;;;;5083508;28;20613;-75
2022/01/04 05:45:41;;;;;;;0.00;0.00;;;;;23.60;99690.00;;;;5068510;28;20040;-74
2022/01/04 05:48:20;;;;;;;0.00;0.00;;;;;23.60;99682.00;;;;5084415;28;20482;-76
2022/01/04 05:50:50;;;;;;;0.00;0.00;;;;;23.60;99694.00;;;;5068867;28;20032;-75
2022/01/04 05:53:20;;;;;;;0.00;0.00;;;;;23.50;99674.00;;;;5069189;28;20041;-74
2022/01/04 05:55:49;;;;;;;0.00;0.00;;;;;23.50;99669.00;;;;5067313;28;20055;-74
2022/01/04 05:58:18;;;;;;;0.00;0.00;;;;;23.50;99686.00;;;;5067859;28;20507;-74
2022/01/04 06:00:49;;;;;;;0.00;0.00;;;;;23.50;99689.00;;;;5068066;28;20048;-74
2022/01/04 06:03:19;;;;;;;0.00;0.00;;;;;23.40;99692.00;;;;5067201;28;20060;-74
2022/01/04 06:05:49;;;;;;;0.00;0.00;;;;;23.40;99688.00;;;;5067493;28;20064;-76
2022/01/04 06:08:20;;;;;;;0.00;0.00;;;;;23.40;99701.00;;;;5067302;28;20040;-77
2022/01/04 06:10:54;;;;;;;0.03;0.03;;;;;23.30;99689.00;;;;5067270;28;20113;-74
2022/01/04 06:16:13;;;;;;;0.00;0.00;;;;;23.40;99709.00;;;;5066840;28;20044;-77
2022/01/04 06:18:42;;;;;;;0.00;0.00;;;;;23.40;99709.00;;;;5066571;28;20055;-76
2022/01/04 06:21:12;;;;;;;0.00;0.00;;;;;23.30;99689.00;;;;5067101;28;20516;-76
2022/01/04 06:23:42;;;;;;;0.00;0.00;;;;;23.30;99705.00;;;;5068175;28;20078;-76
2022/01/04 06:26:11;;;;;;;0.00;0.00;;;;;23.30;99705.00;;;;5067008;28;20055;-75
2022/01/04 06:28:40;;;;;;;0.00;0.00;;;;;23.30;99718.00;;;;5066907;28;20117;-76
2022/01/04 06:31:10;;;;;;;0.00;0.00;;;;;23.30;99698.00;;;;5082109;28;20454;-75
2022/01/04 06:33:39;;;;;;;0.00;0.00;;;;;23.30;99719.00;;;;5066468;28;20048;-76
2022/01/04 06:36:09;;;;;;;0.00;0.00;;;;;23.30;99710.00;;;;5066742;28;20047;-76
2022/01/04 06:38:38;;;;;;;0.00;0.00;;;;;23.30;99696.00;;;;5066963;28;20051;-74
2022/01/04 06:41:07;;;;;;;0.85;0.45;;;;;23.30;99698.00;;;;5066858;28;20093;-77
2022/01/04 06:43:37;;;;;;;0.00;0.00;;;;;23.30;99707.00;;;;5066480;28;20045;-77
2022/01/04 06:46:08;;;;;;;0.00;0.00;;;;;23.30;99708.00;;;;5066055;28;20102;-76
2022/01/04 06:48:38;;;;;;;0.10;0.10;;;;;23.20;99706.00;;;;5067444;28;20442;-76
2022/01/04 06:51:09;;;;;;;0.00;0.00;;;;;23.30;99729.00;;;;5066374;28;20071;-75
2022/01/04 06:53:38;;;;;;;;;;;;;23.20;99731.00;;;;5066997;28;20041;-78
2022/01/04 06:56:08;;;;;;;0.17;0.17;;;;;23.20;99710.00;;;;5065839;28;19956;-76
2022/01/04 06:58:37;;;;;;;0.00;0.00;;;;;23.20;99706.00;;;;5066658;28;20418;-76
2022/01/04 07:01:07;;;;;;;0.00;0.00;;;;;23.10;99709.00;;;;5067329;28;20090;-76
2022/01/04 07:03:37;;;;;;;0.00;0.00;;;;;23.10;99733.00;;;;5068526;28;20032;-75
2022/01/04 07:06:07;;;;;;;0.00;0.00;;;;;23.10;99734.00;;;;5068279;28;20044;-75
2022/01/04 07:08:37;;;;;;;0.00;0.00;;;;;23.10;99741.00;;;;5083487;28;20032;-76
2022/01/04 07:11:06;;;;;;;0.52;0.40;;;;;23.00;99741.00;;;;5069134;28;20048;-76
2022/01/04 07:13:35;;;;;;;0.00;0.00;;;;;23.00;99746.00;;;;5068654;28;20127;-77
2022/01/04 07:16:05;;;;;;;0.00;0.00;;;;;23.00;99725.00;;;;5067959;28;20053;-77
2022/01/04 07:18:35;;;;;;;0.00;0.00;;;;;23.00;99737.00;;;;5085111;28;20021;-75
2022/01/04 07:21:05;;;;;;;0.00;0.00;;;;;23.00;99750.00;;;;5091226;28;20044;-76
2022/01/04 07:23:34;;;;;;;0.00;0.00;;;;;22.90;99756.00;;;;5092957;28;20042;-75
2022/01/04 07:26:03;;;;;;;0.00;0.00;;;;;22.90;99752.00;;;;5091600;28;20055;-75
2022/01/04 07:28:33;;;;;;;0.10;0.10;;;;;22.90;99748.00;;;;5091925;28;20032;-76
2022/01/04 07:31:11;;;;;;;0.00;0.00;;;;;22.90;99754.00;;;;5092774;28;20088;-76
2022/01/04 07:33:41;;;;;;;0.00;0.00;;;;;22.90;99752.00;;;;5087145;28;20506;-78
2022/01/04 07:36:10;;;;;;;0.00;0.00;;;;;22.90;99742.00;;;;5066376;28;20511;-76
2022/01/04 07:38:40;;;;;;;0.00;0.00;;;;;22.90;99747.00;;;;5065324;28;20419;-76
2022/01/04 07:41:10;;;;;;;0.00;0.00;;;;;22.80;99760.00;;;;5064437;28;20049;-77
2022/01/04 07:43:39;;;;;;;0.00;0.00;;;;;22.80;99753.00;;;;5066076;28;20049;-76
2022/01/04 07:46:09;;;;;;;0.00;0.00;;;;;22.80;99777.00;;;;5080689;28;20049;-77
2022/01/04 07:48:38;;;;;;;0.00;0.00;;;;;22.80;99778.00;;;;5064015;28;20055;-76
2022/01/04 07:51:07;;;;;;;0.00;0.00;;;;;22.80;99767.00;;;;5062574;28;20048;-75
2022/01/04 07:53:37;;;;;;;0.10;0.10;;;;;22.80;99769.00;;;;5062668;28;20463;-76
2022/01/04 07:56:07;;;;;;;0.00;0.00;;;;;22.80;99779.00;;;;5065856;28;20399;-76
2022/01/04 07:58:36;;;;;;;0.00;0.00;;;;;22.80;99765.00;;;;5069407;28;20037;-74
2022/01/04 08:01:06;;;;;;;0.00;0.00;;;;;22.80;99774.00;;;;5069999;28;20052;-77
2022/01/04 08:03:35;;;;;;;0.00;0.00;;;;;22.80;99788.00;;;;5069587;28;20046;-75
2022/01/04 08:06:05;;;;;;;0.00;0.00;;;;;22.80;99788.00;;;;5069629;28;20048;-77
2022/01/04 08:08:35;;;;;;;0.00;0.00;;;;;22.80;99786.00;;;;5069626;28;20048;-76
2022/01/04 08:11:04;;;;;;;0.00;0.00;;;;;22.80;99789.00;;;;5084490;28;20495;-74
2022/01/04 08:13:33;;;;;;;0.00;0.00;;;;;22.80;99791.00;;;;5070019;28;20056;-74
2022/01/04 08:16:04;;;;;;;0.25;0.25;;;;;22.80;99783.00;;;;5069032;28;20517;-77
2022/01/04 08:18:33;;;;;;;0.00;0.00;;;;;22.70;99800.00;;;;5069356;28;20040;-74
2022/01/04 08:21:23;;;;;;;0.00;0.00;;;;;22.80;99800.00;;;;5068844;28;20521;-75
2022/01/04 08:23:55;;;;;;;0.00;0.00;;;;;22.70;99794.00;;;;5068909;28;20048;-75
2022/01/04 08:26:25;;;;;;;0.00;0.00;;;;;22.70;99802.00;;;;5068960;28;20055;-77
2022/01/04 08:28:54;;;;;;;0.00;0.00;;;;;22.70;99787.00;;;;5069477;28;20048;-76
2022/01/04 08:31:24;;;;;;;0.00;0.00;;;;;22.60;99801.00;;;;5051198;28;20423;-77
2022/01/04 08:33:54;;;;;;;0.00;0.00;;;;;22.60;99798.00;;;;5068964;28;20048;-75
2022/01/04 08:36:28;;;;;;;0.00;0.00;;;;;22.70;99805.00;;;;5068876;28;20044;-77
2022/01/04 08:38:59;;;;;;;0.00;0.00;;;;;22.60;99798.00;;;;5068692;28;20129;-76
2022/01/04 08:41:28;;;;;;;0.00;0.00;;;;;22.60;99818.00;;;;5067593;28;20059;-76
2022/01/04 08:43:58;;;;;;;0.30;0.30;;;;;22.60;99810.00;;;;5067491;28;20348;-75
2022/01/04 08:46:27;;;;;;;0.05;0.05;;;;;22.50;99804.00;;;;5068499;28;20053;-77
2022/01/04 08:48:57;;;;;;;0.10;0.10;;;;;22.50;99813.00;;;;5068824;28;20045;-76
2022/01/04 08:51:26;;;;;;;0.00;0.00;;;;;22.50;99797.00;;;;5068700;28;20045;-75
2022/01/04 08:53:56;;;;;;;0.00;0.00;;;;;22.50;99788.00;;;;5067571;28;20098;-76
2022/01/04 08:56:26;;;;;;;0.43;0.40;;;;;22.60;99804.00;;;;5068582;28;20052;-76
2022/01/04 08:58:56;;;;;;;0.17;0.17;;;;;22.60;99809.00;;;;5068038;28;20598;-78
2022/01/04 09:01:26;;;;;;;0.75;0.35;;;;;22.60;99787.00;;;;5068580;28;20549;-75
2022/01/04 09:03:56;;;;;;;0.00;0.00;;;;;22.60;99788.00;;;;5067788;28;20613;-74
2022/01/04 09:06:25;;;;;;;0.05;0.05;;;;;22.60;99798.00;;;;5067998;28;20044;-74
2022/01/04 09:08:56;;;;;;;0.20;0.20;;;;;22.70;99781.00;;;;5069103;28;20052;-77
2022/01/04 09:11:26;;;;;;;0.00;0.00;;;;;22.70;99792.00;;;;5068476;28;20086;-75
2022/01/04 09:14:11;;;;;;;0.00;0.00;;;;;22.80;99790.00;;;;5068460;28;20495;-77
2022/01/04 09:19:30;;;;;;;0.00;0.00;;;;;22.90;99791.00;;;;5066522;28;20738;-77
2022/01/04 09:21:59;;;;;;;0.00;0.00;;;;;22.90;99795.00;;;;5068786;28;20040;-77
2022/01/04 09:24:29;;;;;;;0.00;0.00;;;;;22.90;99795.00;;;;5074040;28;20067;-75
2022/01/04 09:26:59;;;;;;;0.00;0.00;;;;;22.90;99822.00;;;;5068522;28;20098;-77
2022/01/04 09:29:28;;;;;;;0.00;0.00;;;;;23.00;99793.00;;;;5068695;28;20044;-75
2022/01/04 09:32:00;;;;;;;0.00;0.00;;;;;23.00;99808.00;;;;5067915;28;20036;-75
2022/01/04 09:34:30;;;;;;;0.00;0.00;;;;;23.00;99798.00;;;;5067960;28;20044;-74
2022/01/04 09:37:00;;;;;;;0.00;0.00;;;;;23.10;99813.00;;;;5066621;28;20499;-77
2022/01/04 09:39:29;;;;;;;0.00;0.00;;;;;23.10;99824.00;;;;5067463;28;20048;-74
2022/01/04 09:41:59;;;;;;;0.00;0.00;;;;;23.20;99823.00;;;;5067297;28;20041;-74
2022/01/04 09:44:29;;;;;;;0.00;0.00;;;;;23.30;99826.00;;;;5067948;28;20036;-74
2022/01/04 09:47:02;;;;;;;0.47;0.33;;;;;23.30;99822.00;;;;5068064;28;20040;-75
2022/01/04 09:49:33;;;;;;;0.00;0.00;;;;;23.40;99832.00;;;;5068108;28;20049;-78
2022/01/04 09:52:04;;;;;;;0.00;0.00;;;;;23.60;99842.00;;;;5067959;28;20478;-76
2022/01/04 09:54:37;;;;;;;0.03;0.03;;;;;23.60;99838.00;;;;5067494;28;20087;-75
2022/01/04 09:57:07;;;;;;;0.00;0.00;;;;;23.70;99832.00;;;;5067848;28;20098;-76
2022/01/04 09:59:39;;;;;;;0.00;0.00;;;;;23.60;99841.00;;;;5068256;28;20854;-75
2022/01/04 10:02:20;;;;;;;0.00;0.00;;;;;23.70;99846.00;;;;5065900;28;20068;-77
2022/01/04 10:04:50;;;;;;;0.00;0.00;;;;;23.70;99848.00;;;;5067103;28;20045;-77
2022/01/04 10:07:22;;;;;;;0.00;0.00;;;;;23.70;99860.00;;;;5067057;28;20092;-77
2022/01/04 10:09:52;;;;;;;0.00;0.00;;;;;23.80;99859.00;;;;5069073;28;20079;-78
2022/01/04 10:12:22;;;;;;;0.00;0.00;;;;;23.80;99851.00;;;;5070827;28;20515;-74
2022/01/04 10:14:55;;;;;;;0.25;0.15;;;;;23.90;99852.00;;;;5073811;28;20645;-74
2022/01/04 10:17:29;;;;;;;0.00;0.00;;;;;24.00;99846.00;;;;5071706;28;20155;-77
2022/01/04 10:20:00;;;;;;;0.00;0.00;;;;;24.00;99842.00;;;;5069417;28;20047;-76
2022/01/04 10:22:34;;;;;;;0.00;0.00;;;;;24.00;99844.00;;;;5069355;28;20044;-75
2022/01/04 10:25:04;;;;;;;0.00;0.00;;;;;24.00;99876.00;;;;5082668;28;20025;-76
2022/01/04 10:27:35;;;;;;;0.00;0.00;;;;;24.00;99869.00;;;;5093512;28;20029;-74
2022/01/04 10:30:22;;;;;;;;;;;;;24.00;99869.00;;;;5093454;28;20044;-76
2022/01/04 10:33:08;;;;;;;0.00;0.00;;;;;24.00;99864.00;;;;5093009;28;19924;-77
2022/01/04 10:35:39;;;;;;;0.00;0.00;;;;;24.00;99872.00;;;;5092353;28;20040;-75
2022/01/04 10:38:26;;;;;;;0.00;0.00;;;;;24.00;99861.00;;;;5092345;28;20008;-76
2022/01/04 10:41:01;;;;;;;0.00;0.00;;;;;24.00;99862.00;;;;5075444;28;20048;-75
2022/01/04 10:43:36;;;;;;;0.73;0.70;;;;;24.00;99872.00;;;;5067536;28;20044;-78
2022/01/04 10:46:08;;;;;;;0.00;0.00;;;;;24.10;99860.00;;;;5066409;28;20044;-75
2022/01/04 10:48:41;;;;;;;0.00;0.00;;;;;24.20;99861.00;;;;5066554;28;20087;-77
2022/01/04 10:51:17;;;;;;;0.00;0.00;;;;;24.20;99842.00;;;;5066176;28;20041;-75
2022/01/04 10:53:56;;;;;;;0.00;0.00;;;;;24.20;99861.00;;;;5066301;28;20111;-74
2022/01/04 10:56:31;;;;;;;0.00;0.00;;;;;24.30;99855.00;;;;5066395;28;20101;-76
2022/01/04 10:59:06;;;;;;;0.00;0.00;;;;;24.40;99857.00;;;;5066929;28;20040;-78
2022/01/04 11:01:46;;;;;;;0.00;0.00;;;;;24.50;99854.00;;;;5066518;28;20976;-76
2022/01/04 11:04:19;;;;;;;0.00;0.00;;;;;24.50;99854.00;;;;5066007;28;20056;-75
2022/01/04 11:06:56;;;;;;;0.00;0.00;;;;;24.60;99853.00;;;;5065740;28;20048;-74
2022/01/04 11:09:26;;;;;;;0.30;0.30;;;;;24.70;99863.00;;;;5066531;28;20048;-76
2022/01/04 11:11:55;;;;;;;0.00;0.00;;;;;24.80;99860.00;;;;5066449;28;20056;-75
2022/01/04 11:14:25;;;;;;;0.00;0.00;;;;;24.80;99844.00;;;;5065861;28;20067;-76
2022/01/04 11:16:55;;;;;;;0.00;0.00;;;;;24.80;99845.00;;;;5066850;28;20483;-76
2022/01/04 11:19:24;;;;;;;0.00;0.00;;;;;25.00;99839.00;;;;5065673;28;20080;-77
2022/01/04 11:21:59;;;;;;;0.08;0.08;;;;;25.00;99851.00;;;;5066339;28;20065;-75
2022/01/04 11:24:29;;;;;;;0.00;0.00;;;;;25.10;99887.00;;;;5066603;28;20041;-78
2022/01/04 11:27:03;;;;;;;0.00;0.00;;;;;25.20;99876.00;;;;5066054;28;20051;-74
2022/01/04 11:29:48;;;;;;;4.90;3.00;;;;;25.20;99872.00;;;;5065915;28;20397;-77
2022/01/04 11:32:21;;;;;;;0.40;0.40;;;;;25.20;99864.00;;;;5069743;28;20052;-78
2022/01/04 11:35:12;;;;;;;0.00;0.00;;;;;25.20;99885.00;;;;5069266;28;20040;-78
2022/01/04 11:37:56;;;;;;;;;;;;;25.20;99890.00;;;;5070661;28;20047;-78
2022/01/04 11:40:31;;;;;;;0.03;0.03;;;;;25.10;99883.00;;;;5070416;28;19970;-75
2022/01/04 11:43:07;;;;;;;0.00;0.00;;;;;25.20;99881.00;;;;5070185;28;20048;-76
2022/01/04 11:45:38;;;;;;;0.00;0.00;;;;;25.10;99863.00;;;;5069822;28;20041;-78
2022/01/04 11:48:33;;;;;;;0.10;0.10;;;;;25.20;99883.00;;;;5069928;28;20058;-78
2022/01/04 11:51:08;;;;;;;0.00;0.00;;;;;25.20;99878.00;;;;5060982;28;20094;-77
2022/01/04 11:53:37;;;;;;;1.00;1.00;;;;;25.20;99869.00;;;;5069558;28;20032;-75
2022/01/04 11:56:09;;;;;;;0.00;0.00;;;;;25.20;99879.00;;;;5069657;28;20059;-77
2022/01/04 11:58:51;;;;;;;0.03;0.00;;;;;25.00;99869.00;;;;5071126;28;20036;-78
2022/01/04 12:01:27;;;;;;;0.00;0.00;;;;;24.90;99875.00;;;;5069648;28;20419;-80
2022/01/04 12:03:57;;;;;;;0.00;0.00;;;;;24.90;99877.00;;;;5070034;28;20044;-78
2022/01/04 12:06:41;;;;;;;1.25;1.20;;;;;24.80;99887.00;;;;5069377;28;20517;-76
2022/01/04 12:09:30;;;;;;;0.00;0.00;;;;;24.90;99880.00;;;;5070024;28;20044;-76
2022/01/04 12:12:00;;;;;;;1.77;1.48;;;;;24.90;99890.00;;;;5069444;28;20037;-76
2022/01/04 12:14:31;;;;;;;0.00;0.00;;;;;25.10;99887.00;;;;5069431;28;20037;-77
2022/01/04 12:17:07;;;;;;;0.10;0.10;;;;;25.10;99901.00;;;;5069407;28;20071;-76
2022/01/04 12:19:48;;;;;;;0.85;0.85;;;;;25.20;99878.00;;;;5069669;28;20530;-76
2022/01/04 12:22:43;;;;;;;;;;;;;25.30;99902.00;;;;5071385;28;20052;-76
2022/01/04 12:25:15;;;;;;;0.00;0.00;;;;;25.40;99888.00;;;;5067600;28;19920;-76
2022/01/04 12:28:16;;;;;;;0.10;0.10;;;;;25.60;99901.00;;;;5069641;28;20048;-76
2022/01/04 12:30:47;;;;;;;0.00;0.00;;;;;25.60;99903.00;;;;5069512;28;20560;-76
2022/01/04 12:33:37;;;;;;;0.00;0.00;;;;;25.70;99898.00;;;;5068632;28;20561;-76
2022/01/04 12:36:07;;;;;;;0.00;0.00;;;;;25.80;99898.00;;;;5069415;28;20041;-77
2022/01/04 12:38:37;;;;;;;0.22;0.22;;;;;26.00;99911.00;;;;5068753;28;20044;-76
2022/01/04 12:41:06;;;;;;;0.03;0.03;;;;;26.10;99901.00;;;;5068861;28;20048;-76
2022/01/04 12:43:37;;;;;;;0.00;0.00;;;;;26.20;99894.00;;;;5067700;28;20052;-75
2022/01/04 12:46:07;;;;;;;0.00;0.00;;;;;26.30;99905.00;;;;5068917;28;20060;-76